Ardmore, PA

1:22 AM EST on March 06, 2015 (GMT -0500)
Woodmere Park | Change Station
CLOSE
Current Station
Personal Weather Station
Location: Havertown, PA
Elevation: 295 ft
Nearby Weather Stations

Elev 295 ft 39.99 °N, 75.30 °W | Updated 15 seconds ago

Clear
Clear
14.5 °F
Feels Like 14 °F
N
0.0
Wind Variable Wind from North
Gusts 0.0 mph

Today
High -- | Low -- °F
--% Chance of Precip.
Yesterday
High -- | Low -- °F
Precip. -- in
6:27 AM 5:58 PM
Full, 100% visible
Pressure 30.44 in
Visibility 10.0 miles
Clouds Clear
Windchill 14 °F
Dew Point 3 °F
Humidity 60%
Rainfall in
Snow Depth Not available.
UV 0.0 out of 12
Pollen .60 out of 12
Air Quality Not available.
Flu Activity Not available.
METAR KPHL 060554Z 36009KT 10SM CLR M08/M14 A3044 RMK AO2 SLP308 T10781144 11056 21078 51020

More Conditions Fewer Conditions

Pressure 30.44 in
Visibility 10.0 miles
Clouds Clear
Windchill 14 °F
Dew Point 3 °F
Humidity 60%
Rainfall in
Snow Depth Not available.
UV 0.0 out of 12
Pollen .60 out of 12
Air Quality Not available.
Flu Activity Not available.
METAR KPHL 060554Z 36009KT 10SM CLR M08/M14 A3044 RMK AO2 SLP308 T10781144 11056 21078 51020

More Conditions Fewer Conditions

10-Day Weather Forecast

Almanac

Astronomy

Mar. 06, 2015 Rise Set
Actual Time
Civil Twilight
Nautical Twilight
Astronomical Twilight
Moon
Length of Visible Light
Length of Day
Tomorrow will be .
, % of the Moon is Illuminated

Today's Extremes

State Highs State Lows

Community

WunderPhotos

Upload Photos

1,803,195 photos uploaded!

WunderBlogs® & News

Nearby

Air Quality

  Air Quality AQ Index Pollutant
Not available.

Snow Depth

Station Depth Elevation

Earthquake Activity

City Distance Mag. Time & Date
Minimum magnitude displayed is 2.5.

Coastal Water Temperatures

Place Temperature

Nearby Weather Stations